Time;durP1;ratioP1;P1;durP2;ratioP2;P2;SDS_P1;SDS_P2;PMS_P1;PMS_P2;Temp;Humidity;BMP_temperature;BMP_pressure;BME280_temperature;BME280_humidity;BME280_pressure;Samples;Min_cycle;Max_cycle;Signal;HPM_P1;HPM_P2
2023/09/24 00:00:32;;;;;;;0.55;0.52;;;;;;;;;;5018633;28;20028;-77
2023/09/24 00:02:58;;;;;;;0.57;0.57;;;;;;;;;;5036060;28;20024;-76
2023/09/24 00:05:25;;;;;;;0.50;0.50;;;;;;;;;;5036338;28;20098;-77
2023/09/24 00:07:51;;;;;;;0.95;0.57;;;;;;;;;;5036356;28;20076;-76
2023/09/24 00:10:17;;;;;;;0.45;0.40;;;;;;;;;;5035829;28;20044;-76
2023/09/24 00:12:43;;;;;;;0.52;0.52;;;;;;;;;;5036256;28;20096;-77
2023/09/24 00:15:09;;;;;;;0.70;0.70;;;;;;;;;;5017983;28;20017;-76
2023/09/24 00:17:36;;;;;;;1.23;0.70;;;;;;;;;;5036059;28;20442;-76
2023/09/24 00:20:04;;;;;;;0.60;0.60;;;;;;;;;;5017715;28;20063;-76
2023/09/24 00:22:30;;;;;;;0.40;0.40;;;;;;;;;;5036780;28;20369;-77
2023/09/24 00:24:58;;;;;;;0.40;0.40;;;;;;;;;;5055681;28;20029;-77
2023/09/24 00:27:24;;;;;;;0.75;0.60;;;;;;;;;;5045063;28;20032;-76
2023/09/24 00:29:50;;;;;;;0.45;0.35;;;;;;;;;;5035843;28;20441;-77
2023/09/24 00:32:16;;;;;;;0.50;0.50;;;;;;;;;;5035341;28;20029;-76
2023/09/24 00:34:42;;;;;;;0.47;0.40;;;;;;;;;;5034085;28;20098;-77
2023/09/24 00:37:09;;;;;;;1.30;0.47;;;;;;;;;;5037682;28;20052;-76
2023/09/24 00:39:37;;;;;;;1.00;0.40;;;;;;;;;;5055453;28;20025;-77
2023/09/24 00:42:05;;;;;;;0.60;0.60;;;;;;;;;;5054806;28;20024;-76
2023/09/24 00:44:31;;;;;;;2.05;0.82;;;;;;;;;;5023958;28;20045;-77
2023/09/24 00:46:58;;;;;;;0.60;0.45;;;;;;;;;;5051236;28;20041;-76
2023/09/24 00:49:24;;;;;;;0.90;0.60;;;;;;;;;;5036954;28;20061;-77
2023/09/24 00:51:50;;;;;;;0.55;0.38;;;;;;;;;;5054885;28;20066;-77
2023/09/24 00:54:16;;;;;;;0.40;0.40;;;;;;;;;;5053838;28;20021;-76
2023/09/24 00:56:43;;;;;;;0.60;0.50;;;;;;;;;;5049773;28;20032;-77
2023/09/24 00:59:09;;;;;;;0.47;0.45;;;;;;;;;;5035405;28;20162;-77
2023/09/24 01:01:35;;;;;;;0.77;0.50;;;;;;;;;;5035852;28;20036;-77
2023/09/24 01:04:05;;;;;;;1.02;0.47;;;;;;;;;;5037631;28;20039;-76
2023/09/24 01:06:32;;;;;;;0.50;0.50;;;;;;;;;;5054613;28;20047;-77
2023/09/24 01:08:58;;;;;;;0.40;0.40;;;;;;;;;;5038059;28;20398;-77
2023/09/24 01:11:26;;;;;;;0.47;0.40;;;;;;;;;;5063046;28;20032;-77
2023/09/24 01:13:52;;;;;;;0.35;0.35;;;;;;;;;;5060630;28;20029;-76
2023/09/24 01:16:19;;;;;;;0.47;0.40;;;;;;;;;;5041182;28;20032;-77
2023/09/24 01:18:45;;;;;;;0.45;0.45;;;;;;;;;;5037444;28;20389;-76
2023/09/24 01:21:12;;;;;;;0.52;0.50;;;;;;;;;;5018855;28;20026;-75
2023/09/24 01:23:40;;;;;;;0.47;0.40;;;;;;;;;;5035806;28;20058;-76
2023/09/24 01:26:08;;;;;;;0.65;0.55;;;;;;;;;;5022485;28;20476;-76
2023/09/24 01:28:34;;;;;;;0.52;0.47;;;;;;;;;;5023657;28;20141;-76
2023/09/24 01:31:01;;;;;;;0.93;0.73;;;;;;;;;;5025451;28;20102;-76
2023/09/24 01:33:27;;;;;;;0.50;0.50;;;;;;;;;;5019560;28;20491;-77
2023/09/24 01:35:53;;;;;;;0.55;0.47;;;;;;;;;;5055171;28;20041;-77
2023/09/24 01:38:19;;;;;;;1.42;0.65;;;;;;;;;;5025174;28;20033;-75
2023/09/24 01:40:45;;;;;;;0.57;0.57;;;;;;;;;;5025602;28;20117;-76
2023/09/24 01:43:14;;;;;;;0.73;0.73;;;;;;;;;;5020067;28;20376;-75
2023/09/24 01:45:40;;;;;;;0.60;0.60;;;;;;;;;;5046364;28;20049;-77
2023/09/24 01:48:10;;;;;;;0.77;0.45;;;;;;;;;;5036376;28;20052;-76
2023/09/24 01:50:36;;;;;;;0.50;0.50;;;;;;;;;;5055558;28;20047;-76
2023/09/24 01:53:04;;;;;;;0.57;0.47;;;;;;;;;;5038465;28;20101;-77
2023/09/24 01:55:31;;;;;;;1.35;0.50;;;;;;;;;;5058663;28;20037;-77
2023/09/24 01:57:59;;;;;;;0.60;0.60;;;;;;;;;;5060806;28;20161;-77
2023/09/24 02:00:25;;;;;;;0.57;0.52;;;;;;;;;;5048424;28;20080;-77
2023/09/24 02:02:56;;;;;;;0.50;0.50;;;;;;;;;;5080013;28;20009;-77
2023/09/24 02:05:23;;;;;;;1.30;0.63;;;;;;;;;;5079926;28;20047;-77
2023/09/24 02:07:49;;;;;;;0.70;0.47;;;;;;;;;;5079900;28;20021;-76
2023/09/24 02:10:18;;;;;;;0.38;0.38;;;;;;;;;;5078113;28;20029;-76
2023/09/24 02:12:48;;;;;;;1.02;0.63;;;;;;;;;;5060121;28;20056;-76
2023/09/24 02:15:23;;;;;;;0.50;0.50;;;;;;;;;;5059912;28;20022;-76
2023/09/24 02:17:49;;;;;;;0.40;0.40;;;;;;;;;;5060337;28;20089;-76
2023/09/24 02:20:27;;;;;;;0.95;0.52;;;;;;;;;;5060001;28;20069;-76
2023/09/24 02:22:58;;;;;;;0.85;0.40;;;;;;;;;;5059645;28;20044;-76
2023/09/24 02:25:28;;;;;;;0.40;0.40;;;;;;;;;;5059081;28;20036;-77
2023/09/24 02:27:55;;;;;;;0.60;0.40;;;;;;;;;;5056771;28;20064;-76
2023/09/24 02:30:22;;;;;;;0.32;0.32;;;;;;;;;;5059043;28;20044;-76
2023/09/24 02:32:48;;;;;;;0.50;0.30;;;;;;;;;;5077005;28;20017;-76
2023/09/24 02:35:15;;;;;;;0.50;0.50;;;;;;;;;;5079311;28;20043;-76
2023/09/24 02:37:44;;;;;;;0.40;0.40;;;;;;;;;;5079583;28;20017;-76
2023/09/24 02:40:30;;;;;;;0.40;0.35;;;;;;;;;;5061917;28;20085;-77
2023/09/24 02:42:57;;;;;;;0.55;0.32;;;;;;;;;;5079804;28;20040;-75
2023/09/24 02:45:23;;;;;;;0.20;0.20;;;;;;;;;;5061679;28;20041;-76
2023/09/24 02:47:49;;;;;;;0.77;0.43;;;;;;;;;;5079736;28;20025;-77
2023/09/24 02:50:21;;;;;;;0.40;0.40;;;;;;;;;;5079412;28;20083;-77
2023/09/24 02:52:47;;;;;;;0.40;0.40;;;;;;;;;;5079457;28;20182;-76
2023/09/24 02:55:32;;;;;;;0.30;0.30;;;;;;;;;;5079130;28;20005;-76
2023/09/24 02:57:58;;;;;;;0.38;0.30;;;;;;;;;;5068093;28;20018;-76
2023/09/24 03:00:27;;;;;;;0.30;0.30;;;;;;;;;;5059912;28;20085;-76
2023/09/24 03:03:00;;;;;;;0.20;0.20;;;;;;;;;;5060473;28;20020;-77
2023/09/24 03:05:28;;;;;;;0.40;0.40;;;;;;;;;;5042262;28;20038;-76
2023/09/24 03:07:55;;;;;;;0.40;0.40;;;;;;;;;;5059610;28;20025;-79
2023/09/24 03:10:22;;;;;;;1.98;0.38;;;;;;;;;;5042542;28;20014;-82
2023/09/24 03:12:49;;;;;;;0.30;0.30;;;;;;;;;;5041523;28;20049;-78
2023/09/24 03:15:15;;;;;;;0.40;0.40;;;;;;;;;;5059385;28;20081;-78
2023/09/24 03:17:42;;;;;;;0.63;0.50;;;;;;;;;;5042571;28;20024;-81
2023/09/24 03:20:15;;;;;;;0.50;0.50;;;;;;;;;;5042538;28;20033;-79
2023/09/24 03:22:43;;;;;;;0.40;0.40;;;;;;;;;;5059642;28;20041;-77
2023/09/24 03:25:11;;;;;;;0.38;0.38;;;;;;;;;;5059659;28;20097;-77
2023/09/24 03:27:40;;;;;;;0.43;0.15;;;;;;;;;;5042088;28;20014;-79
2023/09/24 03:30:09;;;;;;;0.43;0.43;;;;;;;;;;5059357;28;20026;-81
2023/09/24 03:32:36;;;;;;;0.75;0.38;;;;;;;;;;5059602;28;20001;-78
2023/09/24 03:35:03;;;;;;;0.30;0.30;;;;;;;;;;5059379;28;20017;-80
2023/09/24 03:37:30;;;;;;;0.20;0.20;;;;;;;;;;5059168;28;20010;-78
2023/09/24 03:39:56;;;;;;;0.47;0.47;;;;;;;;;;5042302;28;20089;-80
2023/09/24 03:42:22;;;;;;;0.30;0.30;;;;;;;;;;5059310;28;20069;-76
2023/09/24 03:44:48;;;;;;;0.30;0.30;;;;;;;;;;5042053;28;20020;-76
2023/09/24 03:47:16;;;;;;;0.47;0.40;;;;;;;;;;5059178;28;20025;-76
2023/09/24 03:49:43;;;;;;;0.30;0.30;;;;;;;;;;5058610;28;20034;-75
2023/09/24 03:52:10;;;;;;;0.30;0.30;;;;;;;;;;5058338;28;20076;-74
2023/09/24 03:54:38;;;;;;;0.32;0.30;;;;;;;;;;5058918;28;20016;-76
2023/09/24 03:57:05;;;;;;;0.32;0.32;;;;;;;;;;5041756;28;20025;-80
2023/09/24 03:59:35;;;;;;;0.40;0.40;;;;;;;;;;5041691;28;20017;-75
2023/09/24 04:02:01;;;;;;;0.35;0.35;;;;;;;;;;5041775;28;20032;-76
2023/09/24 04:04:27;;;;;;;0.30;0.22;;;;;;;;;;5058845;28;20044;-75
2023/09/24 04:06:54;;;;;;;0.10;0.10;;;;;;;;;;5041827;28;20044;-75
2023/09/24 04:09:20;;;;;;;0.32;0.32;;;;;;;;;;5041402;28;20076;-75
2023/09/24 04:11:46;;;;;;;0.40;0.40;;;;;;;;;;5058648;28;20010;-76
2023/09/24 04:14:13;;;;;;;0.40;0.40;;;;;;;;;;5058701;28;20014;-79
2023/09/24 04:16:39;;;;;;;0.30;0.30;;;;;;;;;;5041296;28;20017;-81
2023/09/24 04:19:07;;;;;;;0.30;0.30;;;;;;;;;;5058427;28;20034;-78
2023/09/24 04:21:33;;;;;;;0.30;0.30;;;;;;;;;;5041110;28;20041;-75
2023/09/24 04:23:59;;;;;;;0.43;0.30;;;;;;;;;;5058600;28;20029;-81
2023/09/24 04:26:25;;;;;;;0.30;0.30;;;;;;;;;;5041426;28;20014;-79
2023/09/24 04:28:54;;;;;;;0.22;0.22;;;;;;;;;;5058397;28;20053;-78
2023/09/24 04:31:20;;;;;;;0.30;0.30;;;;;;;;;;5041187;28;20034;-78
2023/09/24 04:33:48;;;;;;;0.30;0.30;;;;;;;;;;5058543;28;20017;-78
2023/09/24 04:36:17;;;;;;;0.30;0.30;;;;;;;;;;5058072;28;20077;-74
2023/09/24 04:38:44;;;;;;;0.40;0.40;;;;;;;;;;5040984;28;20079;-76
2023/09/24 04:41:10;;;;;;;0.13;0.13;;;;;;;;;;5057909;28;20010;-75
2023/09/24 04:43:36;;;;;;;0.45;0.20;;;;;;;;;;5057094;28;20025;-76
2023/09/24 04:46:05;;;;;;;0.20;0.20;;;;;;;;;;5057462;28;20025;-75
2023/09/24 04:48:35;;;;;;;0.20;0.20;;;;;;;;;;5056657;28;20017;-75
2023/09/24 04:51:01;;;;;;;0.25;0.25;;;;;;;;;;5039803;28;20017;-76
2023/09/24 04:53:28;;;;;;;0.20;0.20;;;;;;;;;;5040321;28;20025;-81
2023/09/24 04:55:54;;;;;;;0.20;0.20;;;;;;;;;;5038991;28;20021;-80
2023/09/24 04:58:24;;;;;;;0.22;0.22;;;;;;;;;;5039395;28;20037;-78
2023/09/24 05:00:50;;;;;;;0.20;0.20;;;;;;;;;;5033505;28;20021;-78
2023/09/24 05:03:17;;;;;;;0.10;0.10;;;;;;;;;;5036971;28;20006;-79
2023/09/24 05:05:43;;;;;;;0.32;0.32;;;;;;;;;;5055260;28;20029;-79
2023/09/24 05:08:13;;;;;;;0.20;0.20;;;;;;;;;;5035252;28;20109;-78
2023/09/24 05:10:42;;;;;;;0.20;0.20;;;;;;;;;;5050293;28;20073;-79
2023/09/24 05:13:08;;;;;;;0.20;0.20;;;;;;;;;;5035412;28;20041;-79
2023/09/24 05:15:35;;;;;;;0.13;0.13;;;;;;;;;;5039442;28;20021;-79
2023/09/24 05:18:01;;;;;;;0.40;0.40;;;;;;;;;;5052114;28;20088;-78
2023/09/24 05:20:35;;;;;;;0.20;0.20;;;;;;;;;;5049653;28;20051;-79
2023/09/24 05:23:01;;;;;;;0.20;0.20;;;;;;;;;;5061383;28;20017;-78
2023/09/24 05:25:27;;;;;;;0.28;0.28;;;;;;;;;;5047238;28;20043;-78
2023/09/24 05:27:53;;;;;;;0.30;0.30;;;;;;;;;;5075404;28;20021;-78
2023/09/24 05:30:19;;;;;;;0.50;0.30;;;;;;;;;;5053185;28;20029;-79
2023/09/24 05:32:46;;;;;;;0.40;0.40;;;;;;;;;;5052246;28;20032;-79
2023/09/24 05:35:12;;;;;;;0.22;0.22;;;;;;;;;;5043026;28;20022;-78
2023/09/24 05:37:39;;;;;;;0.40;0.40;;;;;;;;;;5022145;28;20105;-79
2023/09/24 05:40:05;;;;;;;0.40;0.40;;;;;;;;;;5022916;28;20059;-78
2023/09/24 05:42:31;;;;;;;0.30;0.30;;;;;;;;;;5040504;28;20036;-78
2023/09/24 05:44:58;;;;;;;0.30;0.30;;;;;;;;;;5051479;28;20116;-79
2023/09/24 05:47:26;;;;;;;0.40;0.40;;;;;;;;;;5024664;28;20045;-79
2023/09/24 05:49:53;;;;;;;0.40;0.40;;;;;;;;;;5048606;28;20146;-79
2023/09/24 05:52:19;;;;;;;0.30;0.30;;;;;;;;;;5073946;28;20037;-75
2023/09/24 05:54:45;;;;;;;0.30;0.30;;;;;;;;;;5058785;28;20029;-77
2023/09/24 05:57:11;;;;;;;0.38;0.38;;;;;;;;;;5031140;28;20029;-74
2023/09/24 05:59:37;;;;;;;0.28;0.28;;;;;;;;;;5037962;28;20033;-75
2023/09/24 06:02:03;;;;;;;0.40;0.40;;;;;;;;;;5052896;28;20442;-76
2023/09/24 06:04:33;;;;;;;0.38;0.38;;;;;;;;;;5058413;28;20036;-75
2023/09/24 06:06:59;;;;;;;0.95;0.40;;;;;;;;;;5039451;28;20472;-74
2023/09/24 06:09:25;;;;;;;0.20;0.20;;;;;;;;;;5037858;28;20048;-77
2023/09/24 06:11:51;;;;;;;0.43;0.40;;;;;;;;;;5024202;28;20028;-76
2023/09/24 06:14:17;;;;;;;0.50;0.30;;;;;;;;;;5044095;28;20082;-76
2023/09/24 06:16:43;;;;;;;0.50;0.35;;;;;;;;;;5044526;28;20488;-76
2023/09/24 06:19:09;;;;;;;0.20;0.20;;;;;;;;;;5023501;28;20120;-75
2023/09/24 06:21:35;;;;;;;0.30;0.30;;;;;;;;;;5021550;28;20026;-75
2023/09/24 06:24:01;;;;;;;0.40;0.40;;;;;;;;;;5039666;28;20092;-76
2023/09/24 06:26:28;;;;;;;0.40;0.40;;;;;;;;;;5038886;28;20603;-75
2023/09/24 06:28:54;;;;;;;1.17;0.40;;;;;;;;;;5038653;28;20087;-75
2023/09/24 06:31:20;;;;;;;0.30;0.30;;;;;;;;;;5020494;28;20041;-74
2023/09/24 06:33:47;;;;;;;0.60;0.60;;;;;;;;;;5039145;28;20017;-75
2023/09/24 06:36:13;;;;;;;0.70;0.70;;;;;;;;;;5026304;28;20083;-76
2023/09/24 06:38:39;;;;;;;0.90;0.35;;;;;;;;;;5046366;28;20029;-75
2023/09/24 06:41:05;;;;;;;0.77;0.70;;;;;;;;;;5019684;28;20033;-75
2023/09/24 06:43:32;;;;;;;1.45;0.65;;;;;;;;;;5021856;28;20029;-76
2023/09/24 06:45:58;;;;;;;1.42;0.93;;;;;;;;;;5039175;28;20025;-74
2023/09/24 06:48:25;;;;;;;1.15;1.10;;;;;;;;;;5021301;28;20438;-75
2023/09/24 06:50:53;;;;;;;1.23;0.80;;;;;;;;;;5025894;28;20025;-74
2023/09/24 06:53:20;;;;;;;2.28;1.05;;;;;;;;;;5040863;28;20517;-75
2023/09/24 06:55:46;;;;;;;2.15;1.05;;;;;;;;;;5042769;28;20025;-76
2023/09/24 06:58:14;;;;;;;1.42;1.00;;;;;;;;;;5027057;28;20025;-76
2023/09/24 07:00:40;;;;;;;1.98;1.00;;;;;;;;;;5021698;28;20025;-75
2023/09/24 07:03:06;;;;;;;1.65;1.13;;;;;;;;;;5036922;28;20017;-76
2023/09/24 07:05:32;;;;;;;2.08;0.98;;;;;;;;;;5034235;28;20037;-77
2023/09/24 07:08:02;;;;;;;0.85;0.82;;;;;;;;;;5031543;28;20070;-78
2023/09/24 07:10:29;;;;;;;1.00;0.90;;;;;;;;;;5055397;28;20060;-78
2023/09/24 07:12:58;;;;;;;4.07;1.95;;;;;;;;;;5018130;28;20189;-78
2023/09/24 07:15:25;;;;;;;1.25;0.93;;;;;;;;;;5034208;28;20029;-78
2023/09/24 07:17:56;;;;;;;0.80;0.77;;;;;;;;;;5032712;28;20029;-80
2023/09/24 07:20:23;;;;;;;1.88;1.73;;;;;;;;;;5030363;28;20029;-78
2023/09/24 07:22:49;;;;;;;1.48;1.02;;;;;;;;;;5046440;28;20094;-77
2023/09/24 07:25:15;;;;;;;0.93;0.93;;;;;;;;;;5058698;28;20041;-77
2023/09/24 07:27:41;;;;;;;2.05;1.00;;;;;;;;;;5039348;28;20026;-77
2023/09/24 07:30:08;;;;;;;1.00;0.82;;;;;;;;;;5036870;28;20104;-77
2023/09/24 07:32:37;;;;;;;2.15;0.85;;;;;;;;;;5018168;28;20059;-76
2023/09/24 07:35:03;;;;;;;1.15;0.80;;;;;;;;;;5037214;28;20017;-77
2023/09/24 07:37:29;;;;;;;0.68;0.55;;;;;;;;;;5019665;28;20028;-77
2023/09/24 07:39:55;;;;;;;0.60;0.60;;;;;;;;;;5040004;28;20026;-77
2023/09/24 07:42:21;;;;;;;0.55;0.50;;;;;;;;;;5038063;28;20112;-77
2023/09/24 07:44:47;;;;;;;1.02;0.70;;;;;;;;;;5038154;28;20033;-77
2023/09/24 07:47:16;;;;;;;5.65;1.35;;;;;;;;;;5020244;28;20087;-75
2023/09/24 07:49:43;;;;;;;1.83;1.00;;;;;;;;;;5035878;28;20024;-76
2023/09/24 07:52:12;;;;;;;1.55;1.00;;;;;;;;;;5034831;28;20048;-77
2023/09/24 07:54:38;;;;;;;2.10;1.20;;;;;;;;;;5035557;28;20361;-76
2023/09/24 07:57:04;;;;;;;2.63;1.20;;;;;;;;;;5035598;28;20029;-76
2023/09/24 07:59:30;;;;;;;1.52;0.63;;;;;;;;;;5035264;28;20017;-77
2023/09/24 08:01:58;;;;;;;1.30;0.70;;;;;;;;;;5017804;28;20030;-77
2023/09/24 08:04:25;;;;;;;1.38;0.82;;;;;;;;;;5027370;28;20033;-77
2023/09/24 08:06:51;;;;;;;0.98;0.80;;;;;;;;;;5056830;28;20422;-77
2023/09/24 08:09:17;;;;;;;1.65;0.70;;;;;;;;;;5036861;28;20075;-76
2023/09/24 08:11:44;;;;;;;1.35;0.77;;;;;;;;;;5059866;28;20017;-76
2023/09/24 08:14:10;;;;;;;0.85;0.70;;;;;;;;;;5041143;28;20022;-79
2023/09/24 08:16:36;;;;;;;1.02;0.60;;;;;;;;;;5033065;28;20025;-76
2023/09/24 08:19:02;;;;;;;1.27;0.90;;;;;;;;;;5053705;28;20037;-77
2023/09/24 08:21:28;;;;;;;2.63;1.20;;;;;;;;;;5029208;28;20022;-82
2023/09/24 08:23:54;;;;;;;2.67;1.10;;;;;;;;;;5049307;28;20029;-78
2023/09/24 08:26:21;;;;;;;2.40;0.80;;;;;;;;;;5061596;28;20021;-78
2023/09/24 08:28:47;;;;;;;1.48;0.80;;;;;;;;;;5029880;28;20030;-78
2023/09/24 08:31:13;;;;;;;2.72;0.90;;;;;;;;;;5045320;28;20028;-79
2023/09/24 08:33:39;;;;;;;1.20;0.95;;;;;;;;;;5055003;28;20117;-80
2023/09/24 08:36:11;;;;;;;0.70;0.70;;;;;;;;;;5057667;28;20024;-79
2023/09/24 08:38:37;;;;;;;1.35;0.80;;;;;;;;;;5025019;28;20048;-78
2023/09/24 08:41:09;;;;;;;0.88;0.77;;;;;;;;;;5035885;28;20026;-79
2023/09/24 08:43:39;;;;;;;1.77;1.00;;;;;;;;;;5039033;28;20048;-77
2023/09/24 08:46:05;;;;;;;1.73;1.05;;;;;;;;;;5036614;28;20048;-77
2023/09/24 08:48:31;;;;;;;2.30;0.90;;;;;;;;;;5034721;28;20555;-79
2023/09/24 08:50:58;;;;;;;1.17;0.60;;;;;;;;;;5035815;28;20033;-78
2023/09/24 08:53:27;;;;;;;1.15;0.77;;;;;;;;;;5035855;28;20036;-78
2023/09/24 08:55:54;;;;;;;2.05;0.93;;;;;;;;;;5042216;28;20040;-77
2023/09/24 08:58:20;;;;;;;0.90;0.80;;;;;;;;;;5038754;28;20041;-78
2023/09/24 09:00:46;;;;;;;1.25;0.93;;;;;;;;;;5036314;28;20021;-78
2023/09/24 09:03:12;;;;;;;1.10;0.73;;;;;;;;;;5017389;28;20022;-78
2023/09/24 09:05:38;;;;;;;1.88;0.68;;;;;;;;;;5037935;28;20484;-78
2023/09/24 09:08:05;;;;;;;1.23;0.63;;;;;;;;;;5055193;28;20045;-78
2023/09/24 09:10:32;;;;;;;2.25;1.00;;;;;;;;;;5057823;28;20055;-77
2023/09/24 09:13:15;;;;;;;1.38;0.65;;;;;;;;;;5056503;28;20029;-79
2023/09/24 09:15:42;;;;;;;1.00;0.85;;;;;;;;;;5056109;28;20451;-79
2023/09/24 09:18:29;;;;;;;1.17;0.68;;;;;;;;;;5015981;28;20496;-79
2023/09/24 09:21:01;;;;;;;1.13;0.68;;;;;;;;;;5018673;28;20025;-80
2023/09/24 09:23:32;;;;;;;1.17;0.90;;;;;;;;;;5020041;28;20026;-79
2023/09/24 09:25:58;;;;;;;1.40;0.75;;;;;;;;;;5016267;28;20033;-79
2023/09/24 09:28:24;;;;;;;3.47;0.90;;;;;;;;;;5026530;28;20037;-79
2023/09/24 09:31:00;;;;;;;1.63;0.77;;;;;;;;;;5037256;28;20022;-78
2023/09/24 09:33:27;;;;;;;2.33;0.90;;;;;;;;;;5035978;28;20480;-77
2023/09/24 09:35:54;;;;;;;2.95;1.30;;;;;;;;;;5035409;28;20025;-78
2023/09/24 09:38:21;;;;;;;0.93;0.60;;;;;;;;;;5018547;28;20030;-78
2023/09/24 09:40:48;;;;;;;1.58;0.98;;;;;;;;;;5022842;28;20024;-79
2023/09/24 09:43:14;;;;;;;1.08;0.70;;;;;;;;;;5043489;28;20113;-79
2023/09/24 09:45:43;;;;;;;1.80;1.00;;;;;;;;;;5018025;28;20025;-77
2023/09/24 09:48:11;;;;;;;1.95;1.40;;;;;;;;;;5017441;28;20055;-79
2023/09/24 09:50:42;;;;;;;1.58;1.08;;;;;;;;;;5051304;28;20029;-79
2023/09/24 09:53:10;;;;;;;1.95;0.95;;;;;;;;;;5056299;28;20539;-78
2023/09/24 09:55:39;;;;;;;2.30;0.80;;;;;;;;;;5059740;28;20448;-79
2023/09/24 09:58:06;;;;;;;0.82;0.77;;;;;;;;;;5044088;28;20001;-78
2023/09/24 10:00:32;;;;;;;1.73;1.05;;;;;;;;;;5039988;28;20029;-78
2023/09/24 10:02:58;;;;;;;2.70;0.93;;;;;;;;;;5022694;28;20037;-79
2023/09/24 10:05:25;;;;;;;1.08;0.60;;;;;;;;;;5021649;28;20480;-79
2023/09/24 10:07:51;;;;;;;1.30;0.70;;;;;;;;;;5039695;28;20040;-79
2023/09/24 10:10:32;;;;;;;1.13;0.70;;;;;;;;;;5039297;28;20061;-78
2023/09/24 10:13:04;;;;;;;3.15;1.27;;;;;;;;;;5039339;28;20051;-79
2023/09/24 10:15:30;;;;;;;1.55;1.25;;;;;;;;;;5040527;28;20096;-77
2023/09/24 10:18:08;;;;;;;2.92;0.98;;;;;;;;;;5044502;28;20029;-79
2023/09/24 10:20:50;;;;;;;1.95;0.98;;;;;;;;;;5044423;28;20040;-78
2023/09/24 10:23:31;;;;;;;2.42;0.80;;;;;;;;;;5062196;28;20025;-79
2023/09/24 10:26:00;;;;;;;1.10;0.63;;;;;;;;;;5062534;28;20029;-77
2023/09/24 10:28:45;;;;;;;1.10;0.65;;;;;;;;;;5043131;28;20633;-78
2023/09/24 10:31:12;;;;;;;1.55;0.50;;;;;;;;;;5049847;28;20558;-79
2023/09/24 10:33:53;;;;;;;0.73;0.52;;;;;;;;;;5023941;28;20045;-79
2023/09/24 10:36:29;;;;;;;0.70;0.50;;;;;;;;;;5023756;28;20083;-79
2023/09/24 10:39:07;;;;;;;0.60;0.60;;;;;;;;;;5041162;28;20025;-78
2023/09/24 10:41:34;;;;;;;0.88;0.85;;;;;;;;;;5024230;28;20061;-79
2023/09/24 10:44:19;;;;;;;0.70;0.70;;;;;;;;;;5023675;28;20022;-80
2023/09/24 10:46:45;;;;;;;1.60;0.75;;;;;;;;;;5041450;28;20033;-79
2023/09/24 10:49:16;;;;;;;1.35;0.60;;;;;;;;;;5044494;28;20039;-78
2023/09/24 10:51:42;;;;;;;3.40;0.50;;;;;;;;;;5043705;28;20021;-79
2023/09/24 10:54:12;;;;;;;0.70;0.70;;;;;;;;;;5062341;28;20017;-78
2023/09/24 10:56:39;;;;;;;1.27;0.80;;;;;;;;;;5057037;28;20022;-80
2023/09/24 10:59:05;;;;;;;0.50;0.50;;;;;;;;;;5023509;28;20017;-80
2023/09/24 11:01:31;;;;;;;1.02;0.60;;;;;;;;;;5023837;28;20382;-80
2023/09/24 11:03:57;;;;;;;0.82;0.70;;;;;;;;;;5042332;28;20029;-77
2023/09/24 11:06:33;;;;;;;0.50;0.50;;;;;;;;;;5044047;28;20030;-78
2023/09/24 11:09:15;;;;;;;0.60;0.60;;;;;;;;;;5043369;28;20018;-81
2023/09/24 11:11:41;;;;;;;0.50;0.50;;;;;;;;;;5024593;28;20480;-78
2023/09/24 11:14:16;;;;;;;0.95;0.40;;;;;;;;;;5042706;28;20041;-79
2023/09/24 11:16:42;;;;;;;1.58;0.70;;;;;;;;;;5054107;28;20040;-78
2023/09/24 11:19:08;;;;;;;0.60;0.60;;;;;;;;;;5049439;28;20029;-79
2023/09/24 11:21:34;;;;;;;0.82;0.80;;;;;;;;;;5042061;28;20025;-78
2023/09/24 11:24:16;;;;;;;1.20;1.10;;;;;;;;;;5042048;28;20026;-78
2023/09/24 11:26:43;;;;;;;2.30;1.10;;;;;;;;;;5040734;28;20083;-79
2023/09/24 11:29:09;;;;;;;2.90;1.08;;;;;;;;;;5041030;28;20029;-78
2023/09/24 11:31:35;;;;;;;2.83;1.00;;;;;;;;;;5023305;28;20026;-78
2023/09/24 11:34:01;;;;;;;2.00;0.90;;;;;;;;;;5024038;28;20017;-79
2023/09/24 11:36:28;;;;;;;1.50;0.95;;;;;;;;;;5023316;28;20496;-77
2023/09/24 11:39:00;;;;;;;1.65;0.80;;;;;;;;;;5024743;28;20043;-78
2023/09/24 11:41:28;;;;;;;1.38;1.00;;;;;;;;;;5024085;28;20046;-78
2023/09/24 11:43:58;;;;;;;1.63;1.15;;;;;;;;;;5042312;28;20495;-78
2023/09/24 11:46:32;;;;;;;1.27;0.88;;;;;;;;;;5042438;28;20072;-79
2023/09/24 11:48:59;;;;;;;1.13;0.80;;;;;;;;;;5040361;28;20026;-79
2023/09/24 11:51:26;;;;;;;0.70;0.70;;;;;;;;;;5045020;28;20024;-78
2023/09/24 11:53:52;;;;;;;1.58;1.30;;;;;;;;;;5042880;28;20110;-79
2023/09/24 11:56:18;;;;;;;2.63;1.02;;;;;;;;;;5042480;28;20036;-77
2023/09/24 11:58:44;;;;;;;1.23;1.00;;;;;;;;;;5027025;28;20033;-78
2023/09/24 12:01:11;;;;;;;0.75;0.75;;;;;;;;;;5045314;28;20030;-78
2023/09/24 12:03:37;;;;;;;1.20;0.80;;;;;;;;;;5045446;28;20033;-77
2023/09/24 12:06:03;;;;;;;1.23;0.98;;;;;;;;;;5028918;28;20040;-77
2023/09/24 12:08:29;;;;;;;1.20;0.73;;;;;;;;;;5042821;28;20053;-79
2023/09/24 12:10:55;;;;;;;1.42;0.90;;;;;;;;;;5024596;28;20029;-78
2023/09/24 12:13:22;;;;;;;2.13;1.02;;;;;;;;;;5036014;28;20022;-77
2023/09/24 12:15:48;;;;;;;1.17;0.85;;;;;;;;;;5040559;28;20029;-78
2023/09/24 12:18:14;;;;;;;1.25;0.90;;;;;;;;;;5030735;28;20515;-78
2023/09/24 12:20:42;;;;;;;1.15;0.68;;;;;;;;;;5045862;28;20037;-79
2023/09/24 12:23:08;;;;;;;1.88;1.10;;;;;;;;;;5045863;28;20022;-80
2023/09/24 12:25:38;;;;;;;2.40;1.10;;;;;;;;;;5029263;28;20025;-77
2023/09/24 12:28:05;;;;;;;0.95;0.90;;;;;;;;;;5044639;28;20049;-78
2023/09/24 12:30:32;;;;;;;0.95;0.88;;;;;;;;;;5034551;28;20025;-77
2023/09/24 12:32:58;;;;;;;1.85;1.08;;;;;;;;;;5063950;28;20025;-78
2023/09/24 12:35:24;;;;;;;1.48;1.00;;;;;;;;;;5064016;28;20021;-77
2023/09/24 12:37:54;;;;;;;1.33;1.00;;;;;;;;;;5046236;28;20033;-78
2023/09/24 12:40:20;;;;;;;2.53;0.95;;;;;;;;;;5046827;28;20028;-78
2023/09/24 12:42:46;;;;;;;1.55;0.90;;;;;;;;;;5047229;28;20036;-79
2023/09/24 12:45:12;;;;;;;1.83;1.20;;;;;;;;;;5048951;28;20033;-77
2023/09/24 12:47:39;;;;;;;3.58;1.05;;;;;;;;;;5048845;28;20079;-78
2023/09/24 12:50:06;;;;;;;2.05;1.13;;;;;;;;;;5046430;28;20160;-79
2023/09/24 12:52:34;;;;;;;1.80;0.80;;;;;;;;;;5045510;28;20021;-79
2023/09/24 12:55:01;;;;;;;1.25;0.98;;;;;;;;;;5045898;28;20021;-79
2023/09/24 12:57:27;;;;;;;1.13;0.90;;;;;;;;;;5029738;28;20014;-77
2023/09/24 12:59:53;;;;;;;0.77;0.75;;;;;;;;;;5044738;28;20032;-78
2023/09/24 13:02:19;;;;;;;0.65;0.65;;;;;;;;;;5061958;28;20033;-78
2023/09/24 13:04:45;;;;;;;0.75;0.75;;;;;;;;;;5066092;28;20021;-78
2023/09/24 13:07:11;;;;;;;1.23;0.90;;;;;;;;;;5049305;28;20056;-78
2023/09/24 13:09:37;;;;;;;0.98;0.80;;;;;;;;;;5052191;28;20033;-76
2023/09/24 13:12:04;;;;;;;0.82;0.82;;;;;;;;;;5045340;28;20025;-76
2023/09/24 13:14:30;;;;;;;1.13;0.70;;;;;;;;;;5055385;28;20031;-74
2023/09/24 13:16:56;;;;;;;0.85;0.70;;;;;;;;;;5033622;28;20064;-77
2023/09/24 13:19:23;;;;;;;0.85;0.82;;;;;;;;;;5047796;28;20030;-78
2023/09/24 13:21:49;;;;;;;0.85;0.85;;;;;;;;;;5034944;28;20025;-78
2023/09/24 13:24:15;;;;;;;0.80;0.73;;;;;;;;;;5056791;28;20101;-78
2023/09/24 13:26:42;;;;;;;4.22;0.93;;;;;;;;;;5046729;28;20051;-78
2023/09/24 13:29:08;;;;;;;0.95;0.60;;;;;;;;;;5050658;28;20022;-77
2023/09/24 13:31:34;;;;;;;0.85;0.60;;;;;;;;;;5052903;28;20018;-77
2023/09/24 13:34:03;;;;;;;1.13;0.93;;;;;;;;;;5068600;28;20021;-79
2023/09/24 13:36:30;;;;;;;0.68;0.68;;;;;;;;;;5067787;28;20101;-78
2023/09/24 13:38:59;;;;;;;1.00;0.80;;;;;;;;;;5066727;28;20030;-77
2023/09/24 13:41:29;;;;;;;0.70;0.70;;;;;;;;;;5068817;28;20048;-78
2023/09/24 13:43:55;;;;;;;1.42;1.20;;;;;;;;;;5049947;28;20037;-80
2023/09/24 13:46:21;;;;;;;1.08;0.90;;;;;;;;;;5030910;28;20100;-77
2023/09/24 13:48:49;;;;;;;1.70;1.13;;;;;;;;;;5031050;28;20043;-77
2023/09/24 13:51:16;;;;;;;1.00;1.00;;;;;;;;;;5051819;28;20033;-76
2023/09/24 13:53:42;;;;;;;0.80;0.80;;;;;;;;;;5034795;28;20060;-78
2023/09/24 13:56:15;;;;;;;0.80;0.80;;;;;;;;;;5043990;28;20025;-78
2023/09/24 13:58:41;;;;;;;0.82;0.82;;;;;;;;;;5025784;28;20021;-78
2023/09/24 14:01:08;;;;;;;0.98;0.93;;;;;;;;;;5025728;28;20045;-79
2023/09/24 14:03:34;;;;;;;1.20;0.90;;;;;;;;;;5036381;28;20452;-79
2023/09/24 14:06:01;;;;;;;0.60;0.60;;;;;;;;;;5044824;28;20036;-78
2023/09/24 14:14:04;;;;;;;1.33;0.80;;;;;;;;;;5052952;28;20125;-79
2023/09/24 14:16:31;;;;;;;2.72;1.00;;;;;;;;;;5042812;28;20491;-79
2023/09/24 14:18:57;;;;;;;2.67;1.30;;;;;;;;;;5044253;28;20045;-80
2023/09/24 14:21:23;;;;;;;0.82;0.80;;;;;;;;;;5044453;28;20108;-79
2023/09/24 14:23:49;;;;;;;0.80;0.80;;;;;;;;;;5045594;28;20445;-78
2023/09/24 14:26:15;;;;;;;0.60;0.60;;;;;;;;;;5045272;28;20025;-78
2023/09/24 14:28:41;;;;;;;0.82;0.70;;;;;;;;;;5026218;28;20411;-77
2023/09/24 14:31:07;;;;;;;0.60;0.60;;;;;;;;;;5041007;28;20412;-77
2023/09/24 14:33:36;;;;;;;0.50;0.50;;;;;;;;;;5026758;28;20025;-79
2023/09/24 14:36:03;;;;;;;1.08;0.98;;;;;;;;;;5023624;28;20045;-77
2023/09/24 14:38:32;;;;;;;0.60;0.60;;;;;;;;;;5006317;28;20026;-78
2023/09/24 14:40:58;;;;;;;1.13;0.70;;;;;;;;;;5023206;28;20014;-79
2023/09/24 14:43:26;;;;;;;0.80;0.80;;;;;;;;;;5022987;28;20037;-79
2023/09/24 14:46:02;;;;;;;1.52;1.20;;;;;;;;;;5057523;28;20021;-79
2023/09/24 14:48:29;;;;;;;1.05;0.93;;;;;;;;;;5061563;28;20445;-79
2023/09/24 14:50:57;;;;;;;1.52;1.00;;;;;;;;;;5052296;28;20028;-79